sensor_id;sensor_type;location;lat;lon;timestamp;P1;durP1;ratioP1;P2;durP2;ratioP2
9334;SDS011;4706;41.844;26.082;2023-05-07T00:01:31;6.43;;;3.47;;
9334;SDS011;4706;41.844;26.082;2023-05-07T00:03:57;5.20;;;3.55;;
9334;SDS011;4706;41.844;26.082;2023-05-07T00:06:23;4.60;;;3.20;;
9334;SDS011;4706;41.844;26.082;2023-05-07T00:08:49;5.05;;;3.63;;
9334;SDS011;4706;41.844;26.082;2023-05-07T00:11:14;5.10;;;3.50;;
9334;SDS011;4706;41.844;26.082;2023-05-07T00:13:40;4.85;;;3.22;;
9334;SDS011;4706;41.844;26.082;2023-05-07T00:16:05;5.25;;;3.40;;
9334;SDS011;4706;41.844;26.082;2023-05-07T00:18:31;3.50;;;3.03;;
9334;SDS011;4706;41.844;26.082;2023-05-07T00:20:56;3.70;;;3.17;;
9334;SDS011;4706;41.844;26.082;2023-05-07T00:23:22;4.05;;;3.53;;
9334;SDS011;4706;41.844;26.082;2023-05-07T00:25:48;5.25;;;3.58;;
9334;SDS011;4706;41.844;26.082;2023-05-07T00:28:13;5.93;;;3.58;;
9334;SDS011;4706;41.844;26.082;2023-05-07T00:30:39;4.88;;;3.65;;
9334;SDS011;4706;41.844;26.082;2023-05-07T00:33:04;4.10;;;3.63;;
9334;SDS011;4706;41.844;26.082;2023-05-07T00:35:30;5.10;;;4.10;;
9334;SDS011;4706;41.844;26.082;2023-05-07T00:37:56;4.70;;;4.10;;
9334;SDS011;4706;41.844;26.082;2023-05-07T00:40:21;4.93;;;3.83;;
9334;SDS011;4706;41.844;26.082;2023-05-07T00:42:47;4.28;;;3.88;;
9334;SDS011;4706;41.844;26.082;2023-05-07T00:45:14;4.25;;;3.85;;
9334;SDS011;4706;41.844;26.082;2023-05-07T00:47:40;4.50;;;3.80;;
9334;SDS011;4706;41.844;26.082;2023-05-07T00:50:07;4.13;;;3.75;;
9334;SDS011;4706;41.844;26.082;2023-05-07T00:52:34;5.18;;;3.78;;
9334;SDS011;4706;41.844;26.082;2023-05-07T00:55:04;3.88;;;3.53;;
9334;SDS011;4706;41.844;26.082;2023-05-07T00:57:37;4.78;;;3.58;;
9334;SDS011;4706;41.844;26.082;2023-05-07T01:00:06;6.90;;;4.05;;
9334;SDS011;4706;41.844;26.082;2023-05-07T01:02:34;4.05;;;3.63;;
9334;SDS011;4706;41.844;26.082;2023-05-07T01:05:00;4.43;;;3.95;;
9334;SDS011;4706;41.844;26.082;2023-05-07T01:07:29;5.20;;;3.97;;
9334;SDS011;4706;41.844;26.082;2023-05-07T01:09:55;7.55;;;4.18;;
9334;SDS011;4706;41.844;26.082;2023-05-07T01:12:22;5.95;;;4.22;;
9334;SDS011;4706;41.844;26.082;2023-05-07T01:14:48;5.07;;;4.57;;
9334;SDS011;4706;41.844;26.082;2023-05-07T01:17:15;7.15;;;5.25;;
9334;SDS011;4706;41.844;26.082;2023-05-07T01:19:41;6.47;;;4.57;;
9334;SDS011;4706;41.844;26.082;2023-05-07T01:22:08;5.72;;;5.03;;
9334;SDS011;4706;41.844;26.082;2023-05-07T01:24:36;5.50;;;5.00;;
9334;SDS011;4706;41.844;26.082;2023-05-07T01:27:02;7.00;;;5.55;;
9334;SDS011;4706;41.844;26.082;2023-05-07T01:29:28;6.22;;;5.15;;
9334;SDS011;4706;41.844;26.082;2023-05-07T01:31:54;6.88;;;5.47;;
9334;SDS011;4706;41.844;26.082;2023-05-07T01:34:25;6.68;;;5.25;;
9334;SDS011;4706;41.844;26.082;2023-05-07T01:36:52;6.30;;;5.55;;
9334;SDS011;4706;41.844;26.082;2023-05-07T01:39:22;6.63;;;5.18;;
9334;SDS011;4706;41.844;26.082;2023-05-07T01:41:54;6.80;;;5.45;;
9334;SDS011;4706;41.844;26.082;2023-05-07T01:44:22;6.32;;;5.30;;
9334;SDS011;4706;41.844;26.082;2023-05-07T01:46:48;6.88;;;5.22;;
9334;SDS011;4706;41.844;26.082;2023-05-07T01:49:15;5.95;;;5.13;;
9334;SDS011;4706;41.844;26.082;2023-05-07T01:51:41;6.90;;;5.35;;
9334;SDS011;4706;41.844;26.082;2023-05-07T01:54:07;6.53;;;5.43;;
9334;SDS011;4706;41.844;26.082;2023-05-07T01:56:33;5.65;;;5.15;;
9334;SDS011;4706;41.844;26.082;2023-05-07T01:58:59;6.97;;;5.32;;
9334;SDS011;4706;41.844;26.082;2023-05-07T02:01:24;6.05;;;5.45;;
9334;SDS011;4706;41.844;26.082;2023-05-07T02:03:50;6.80;;;6.10;;
9334;SDS011;4706;41.844;26.082;2023-05-07T02:06:15;6.40;;;5.80;;
9334;SDS011;4706;41.844;26.082;2023-05-07T02:08:41;7.10;;;6.00;;
9334;SDS011;4706;41.844;26.082;2023-05-07T02:11:06;7.10;;;6.40;;
9334;SDS011;4706;41.844;26.082;2023-05-07T02:13:32;7.25;;;6.53;;
9334;SDS011;4706;41.844;26.082;2023-05-07T02:15:59;6.75;;;5.53;;
9334;SDS011;4706;41.844;26.082;2023-05-07T02:18:25;6.25;;;5.07;;
9334;SDS011;4706;41.844;26.082;2023-05-07T02:20:53;5.93;;;5.00;;
9334;SDS011;4706;41.844;26.082;2023-05-07T02:23:18;7.32;;;6.20;;
9334;SDS011;4706;41.844;26.082;2023-05-07T02:25:44;5.75;;;5.25;;
9334;SDS011;4706;41.844;26.082;2023-05-07T02:28:09;8.02;;;4.82;;
9334;SDS011;4706;41.844;26.082;2023-05-07T02:30:36;5.80;;;4.85;;
9334;SDS011;4706;41.844;26.082;2023-05-07T02:33:02;7.50;;;4.90;;
9334;SDS011;4706;41.844;26.082;2023-05-07T02:35:27;5.90;;;5.30;;
9334;SDS011;4706;41.844;26.082;2023-05-07T02:37:53;5.65;;;5.10;;
9334;SDS011;4706;41.844;26.082;2023-05-07T02:40:18;6.10;;;5.50;;
9334;SDS011;4706;41.844;26.082;2023-05-07T02:42:44;7.10;;;6.40;;
9334;SDS011;4706;41.844;26.082;2023-05-07T02:45:09;8.30;;;6.05;;
9334;SDS011;4706;41.844;26.082;2023-05-07T02:47:35;6.43;;;5.82;;
9334;SDS011;4706;41.844;26.082;2023-05-07T02:50:01;6.38;;;5.60;;
9334;SDS011;4706;41.844;26.082;2023-05-07T02:52:27;8.75;;;5.90;;
9334;SDS011;4706;41.844;26.082;2023-05-07T02:54:52;9.23;;;5.30;;
9334;SDS011;4706;41.844;26.082;2023-05-07T02:57:18;6.93;;;5.68;;
9334;SDS011;4706;41.844;26.082;2023-05-07T02:59:43;6.35;;;5.40;;
9334;SDS011;4706;41.844;26.082;2023-05-07T03:02:09;6.15;;;5.00;;
9334;SDS011;4706;41.844;26.082;2023-05-07T03:04:35;5.50;;;4.95;;
9334;SDS011;4706;41.844;26.082;2023-05-07T03:07:01;4.70;;;4.30;;
9334;SDS011;4706;41.844;26.082;2023-05-07T03:09:26;5.97;;;4.45;;
9334;SDS011;4706;41.844;26.082;2023-05-07T03:11:52;4.60;;;4.20;;
9334;SDS011;4706;41.844;26.082;2023-05-07T03:14:17;5.97;;;4.90;;
9334;SDS011;4706;41.844;26.082;2023-05-07T03:16:43;5.45;;;4.93;;
9334;SDS011;4706;41.844;26.082;2023-05-07T03:19:08;5.82;;;4.70;;
9334;SDS011;4706;41.844;26.082;2023-05-07T03:21:34;7.57;;;4.88;;
9334;SDS011;4706;41.844;26.082;2023-05-07T03:23:59;7.90;;;5.03;;
9334;SDS011;4706;41.844;26.082;2023-05-07T03:26:25;6.95;;;5.35;;
9334;SDS011;4706;41.844;26.082;2023-05-07T03:28:51;6.50;;;5.82;;
9334;SDS011;4706;41.844;26.082;2023-05-07T03:31:17;7.75;;;7.05;;
9334;SDS011;4706;41.844;26.082;2023-05-07T03:33:56;8.88;;;6.95;;
9334;SDS011;4706;41.844;26.082;2023-05-07T03:36:22;8.20;;;7.40;;
9334;SDS011;4706;41.844;26.082;2023-05-07T03:38:48;7.45;;;6.75;;
9334;SDS011;4706;41.844;26.082;2023-05-07T03:41:14;9.48;;;6.15;;
9334;SDS011;4706;41.844;26.082;2023-05-07T03:43:40;6.53;;;5.72;;
9334;SDS011;4706;41.844;26.082;2023-05-07T03:46:05;6.63;;;5.40;;
9334;SDS011;4706;41.844;26.082;2023-05-07T03:48:31;6.18;;;5.22;;
9334;SDS011;4706;41.844;26.082;2023-05-07T03:50:57;5.45;;;4.95;;
9334;SDS011;4706;41.844;26.082;2023-05-07T03:53:23;6.28;;;5.63;;
9334;SDS011;4706;41.844;26.082;2023-05-07T03:55:48;5.40;;;4.75;;
9334;SDS011;4706;41.844;26.082;2023-05-07T03:58:14;6.07;;;5.25;;
9334;SDS011;4706;41.844;26.082;2023-05-07T04:00:40;5.70;;;4.53;;
9334;SDS011;4706;41.844;26.082;2023-05-07T04:03:06;5.10;;;4.60;;
9334;SDS011;4706;41.844;26.082;2023-05-07T04:05:32;7.45;;;4.88;;
9334;SDS011;4706;41.844;26.082;2023-05-07T04:07:58;6.65;;;5.13;;
9334;SDS011;4706;41.844;26.082;2023-05-07T04:10:24;5.22;;;4.80;;
9334;SDS011;4706;41.844;26.082;2023-05-07T04:12:49;22.70;;;20.48;;
9334;SDS011;4706;41.844;26.082;2023-05-07T04:15:15;7.65;;;6.72;;
9334;SDS011;4706;41.844;26.082;2023-05-07T04:17:41;9.18;;;5.90;;
9334;SDS011;4706;41.844;26.082;2023-05-07T04:20:08;6.50;;;5.45;;
9334;SDS011;4706;41.844;26.082;2023-05-07T04:22:34;5.82;;;5.30;;
9334;SDS011;4706;41.844;26.082;2023-05-07T04:25:00;6.47;;;5.43;;
9334;SDS011;4706;41.844;26.082;2023-05-07T04:27:26;5.88;;;5.40;;
9334;SDS011;4706;41.844;26.082;2023-05-07T04:29:53;7.47;;;5.88;;
9334;SDS011;4706;41.844;26.082;2023-05-07T04:32:21;7.47;;;6.43;;
9334;SDS011;4706;41.844;26.082;2023-05-07T04:34:50;7.18;;;6.47;;
9334;SDS011;4706;41.844;26.082;2023-05-07T04:37:15;7.45;;;6.07;;
9334;SDS011;4706;41.844;26.082;2023-05-07T04:39:41;7.78;;;5.93;;
9334;SDS011;4706;41.844;26.082;2023-05-07T04:42:06;7.50;;;5.80;;
9334;SDS011;4706;41.844;26.082;2023-05-07T04:44:34;8.00;;;6.07;;
9334;SDS011;4706;41.844;26.082;2023-05-07T04:47:00;7.78;;;6.28;;
9334;SDS011;4706;41.844;26.082;2023-05-07T04:49:26;9.38;;;6.40;;
9334;SDS011;4706;41.844;26.082;2023-05-07T04:51:52;9.25;;;6.53;;
9334;SDS011;4706;41.844;26.082;2023-05-07T04:54:17;7.57;;;6.30;;
9334;SDS011;4706;41.844;26.082;2023-05-07T04:56:43;7.10;;;6.40;;
9334;SDS011;4706;41.844;26.082;2023-05-07T04:59:08;7.28;;;6.22;;
9334;SDS011;4706;41.844;26.082;2023-05-07T05:01:34;7.45;;;6.25;;
9334;SDS011;4706;41.844;26.082;2023-05-07T05:04:00;7.72;;;6.22;;
9334;SDS011;4706;41.844;26.082;2023-05-07T05:06:25;10.00;;;6.22;;
9334;SDS011;4706;41.844;26.082;2023-05-07T05:08:51;7.72;;;5.75;;
9334;SDS011;4706;41.844;26.082;2023-05-07T05:11:16;7.70;;;6.35;;
9334;SDS011;4706;41.844;26.082;2023-05-07T05:13:42;9.77;;;7.32;;
9334;SDS011;4706;41.844;26.082;2023-05-07T05:16:07;14.07;;;12.73;;
9334;SDS011;4706;41.844;26.082;2023-05-07T05:18:33;7.60;;;6.82;;
9334;SDS011;4706;41.844;26.082;2023-05-07T05:20:58;10.05;;;7.07;;
9334;SDS011;4706;41.844;26.082;2023-05-07T05:23:24;7.32;;;6.50;;
9334;SDS011;4706;41.844;26.082;2023-05-07T05:25:49;7.28;;;5.90;;
9334;SDS011;4706;41.844;26.082;2023-05-07T05:28:15;14.02;;;12.60;;
9334;SDS011;4706;41.844;26.082;2023-05-07T05:30:40;8.63;;;7.13;;
9334;SDS011;4706;41.844;26.082;2023-05-07T05:33:06;6.72;;;6.20;;
9334;SDS011;4706;41.844;26.082;2023-05-07T05:35:31;6.70;;;6.10;;
9334;SDS011;4706;41.844;26.082;2023-05-07T05:37:57;6.53;;;5.55;;
9334;SDS011;4706;41.844;26.082;2023-05-07T05:40:22;7.97;;;6.10;;
9334;SDS011;4706;41.844;26.082;2023-05-07T05:42:48;7.07;;;5.93;;
9334;SDS011;4706;41.844;26.082;2023-05-07T05:45:13;6.68;;;6.05;;
9334;SDS011;4706;41.844;26.082;2023-05-07T05:47:39;6.63;;;5.68;;
9334;SDS011;4706;41.844;26.082;2023-05-07T05:50:06;6.38;;;5.18;;
9334;SDS011;4706;41.844;26.082;2023-05-07T05:52:32;6.60;;;5.30;;
9334;SDS011;4706;41.844;26.082;2023-05-07T05:54:57;13.93;;;6.10;;
9334;SDS011;4706;41.844;26.082;2023-05-07T05:57:23;9.13;;;5.07;;
9334;SDS011;4706;41.844;26.082;2023-05-07T05:59:48;6.18;;;5.57;;
9334;SDS011;4706;41.844;26.082;2023-05-07T06:02:14;7.20;;;5.00;;
9334;SDS011;4706;41.844;26.082;2023-05-07T06:04:39;7.75;;;5.13;;
9334;SDS011;4706;41.844;26.082;2023-05-07T06:07:05;6.32;;;5.72;;
9334;SDS011;4706;41.844;26.082;2023-05-07T06:09:30;6.72;;;5.80;;
9334;SDS011;4706;41.844;26.082;2023-05-07T06:11:56;5.40;;;4.90;;
9334;SDS011;4706;41.844;26.082;2023-05-07T06:14:21;7.18;;;4.80;;
9334;SDS011;4706;41.844;26.082;2023-05-07T06:16:47;7.18;;;4.90;;
9334;SDS011;4706;41.844;26.082;2023-05-07T06:19:12;5.13;;;4.70;;
9334;SDS011;4706;41.844;26.082;2023-05-07T06:21:38;6.00;;;3.65;;
9334;SDS011;4706;41.844;26.082;2023-05-07T06:24:05;7.63;;;6.80;;
9334;SDS011;4706;41.844;26.082;2023-05-07T06:26:30;7.90;;;4.20;;
9334;SDS011;4706;41.844;26.082;2023-05-07T06:28:56;4.75;;;3.85;;
9334;SDS011;4706;41.844;26.082;2023-05-07T06:31:21;5.32;;;3.47;;
9334;SDS011;4706;41.844;26.082;2023-05-07T06:33:47;6.07;;;4.07;;
9334;SDS011;4706;41.844;26.082;2023-05-07T06:36:13;6.90;;;3.63;;
9334;SDS011;4706;41.844;26.082;2023-05-07T06:38:38;5.18;;;4.38;;
9334;SDS011;4706;41.844;26.082;2023-05-07T06:41:05;7.05;;;3.33;;
9334;SDS011;4706;41.844;26.082;2023-05-07T06:43:31;4.57;;;3.50;;
9334;SDS011;4706;41.844;26.082;2023-05-07T06:45:57;4.57;;;3.00;;
9334;SDS011;4706;41.844;26.082;2023-05-07T06:48:23;5.38;;;3.20;;
9334;SDS011;4706;41.844;26.082;2023-05-07T06:50:48;3.40;;;2.72;;
9334;SDS011;4706;41.844;26.082;2023-05-07T06:53:14;6.20;;;2.40;;
9334;SDS011;4706;41.844;26.082;2023-05-07T06:55:39;4.93;;;2.10;;
9334;SDS011;4706;41.844;26.082;2023-05-07T06:58:04;4.50;;;2.15;;
9334;SDS011;4706;41.844;26.082;2023-05-07T07:00:31;2.88;;;2.53;;
9334;SDS011;4706;41.844;26.082;2023-05-07T07:02:56;3.42;;;2.60;;
9334;SDS011;4706;41.844;26.082;2023-05-07T07:05:22;2.53;;;2.13;;
9334;SDS011;4706;41.844;26.082;2023-05-07T07:07:47;3.75;;;2.45;;
9334;SDS011;4706;41.844;26.082;2023-05-07T07:10:21;3.80;;;2.00;;
9334;SDS011;4706;41.844;26.082;2023-05-07T07:12:47;3.67;;;2.17;;
9334;SDS011;4706;41.844;26.082;2023-05-07T07:15:13;3.53;;;2.78;;
9334;SDS011;4706;41.844;26.082;2023-05-07T07:17:39;2.95;;;2.20;;
9334;SDS011;4706;41.844;26.082;2023-05-07T07:20:05;6.38;;;5.78;;
9334;SDS011;4706;41.844;26.082;2023-05-07T07:22:30;5.68;;;4.10;;
9334;SDS011;4706;41.844;26.082;2023-05-07T07:24:56;4.05;;;2.30;;
9334;SDS011;4706;41.844;26.082;2023-05-07T07:27:22;2.65;;;2.45;;
9334;SDS011;4706;41.844;26.082;2023-05-07T07:29:47;2.38;;;2.00;;
9334;SDS011;4706;41.844;26.082;2023-05-07T07:32:13;4.72;;;2.28;;
9334;SDS011;4706;41.844;26.082;2023-05-07T07:34:38;3.08;;;2.38;;
9334;SDS011;4706;41.844;26.082;2023-05-07T07:37:04;4.28;;;3.20;;
9334;SDS011;4706;41.844;26.082;2023-05-07T07:39:30;3.63;;;2.00;;
9334;SDS011;4706;41.844;26.082;2023-05-07T07:41:56;3.40;;;2.17;;
9334;SDS011;4706;41.844;26.082;2023-05-07T07:44:22;5.68;;;3.95;;
9334;SDS011;4706;41.844;26.082;2023-05-07T07:46:47;6.78;;;4.07;;
9334;SDS011;4706;41.844;26.082;2023-05-07T07:49:13;3.95;;;2.40;;
9334;SDS011;4706;41.844;26.082;2023-05-07T07:51:38;4.32;;;2.13;;
9334;SDS011;4706;41.844;26.082;2023-05-07T07:54:04;2.50;;;2.30;;
9334;SDS011;4706;41.844;26.082;2023-05-07T07:56:31;3.15;;;2.00;;
9334;SDS011;4706;41.844;26.082;2023-05-07T07:58:58;3.10;;;2.40;;
9334;SDS011;4706;41.844;26.082;2023-05-07T08:01:24;2.88;;;2.13;;
9334;SDS011;4706;41.844;26.082;2023-05-07T08:03:50;8.98;;;2.50;;
9334;SDS011;4706;41.844;26.082;2023-05-07T08:06:16;4.35;;;3.95;;
9334;SDS011;4706;41.844;26.082;2023-05-07T08:08:41;4.53;;;2.35;;
9334;SDS011;4706;41.844;26.082;2023-05-07T08:11:07;3.08;;;2.60;;
9334;SDS011;4706;41.844;26.082;2023-05-07T08:13:32;3.00;;;2.35;;
9334;SDS011;4706;41.844;26.082;2023-05-07T08:15:58;2.42;;;1.90;;
9334;SDS011;4706;41.844;26.082;2023-05-07T08:18:24;2.20;;;2.00;;
9334;SDS011;4706;41.844;26.082;2023-05-07T08:20:50;3.17;;;1.98;;
9334;SDS011;4706;41.844;26.082;2023-05-07T08:23:16;3.78;;;2.00;;
9334;SDS011;4706;41.844;26.082;2023-05-07T08:25:42;2.10;;;1.90;;
9334;SDS011;4706;41.844;26.082;2023-05-07T08:28:07;2.72;;;1.90;;
9334;SDS011;4706;41.844;26.082;2023-05-07T08:30:33;5.07;;;3.92;;
9334;SDS011;4706;41.844;26.082;2023-05-07T08:32:59;3.72;;;2.53;;
9334;SDS011;4706;41.844;26.082;2023-05-07T08:35:25;2.67;;;2.10;;
9334;SDS011;4706;41.844;26.082;2023-05-07T08:37:52;2.72;;;1.98;;
9334;SDS011;4706;41.844;26.082;2023-05-07T08:40:17;3.72;;;3.20;;
9334;SDS011;4706;41.844;26.082;2023-05-07T08:42:44;2.92;;;2.38;;
9334;SDS011;4706;41.844;26.082;2023-05-07T08:45:10;2.47;;;2.17;;
9334;SDS011;4706;41.844;26.082;2023-05-07T08:47:58;3.15;;;2.20;;
9334;SDS011;4706;41.844;26.082;2023-05-07T08:50:24;4.95;;;1.92;;
9334;SDS011;4706;41.844;26.082;2023-05-07T08:52:49;3.83;;;1.95;;
9334;SDS011;4706;41.844;26.082;2023-05-07T08:55:15;2.83;;;2.08;;
9334;SDS011;4706;41.844;26.082;2023-05-07T08:57:41;3.63;;;2.10;;
9334;SDS011;4706;41.844;26.082;2023-05-07T09:00:07;2.75;;;2.28;;
9334;SDS011;4706;41.844;26.082;2023-05-07T09:02:34;3.72;;;2.22;;
9334;SDS011;4706;41.844;26.082;2023-05-07T09:05:01;2.95;;;1.90;;
9334;SDS011;4706;41.844;26.082;2023-05-07T09:07:26;7.13;;;2.25;;
9334;SDS011;4706;41.844;26.082;2023-05-07T09:09:52;3.13;;;2.08;;
9334;SDS011;4706;41.844;26.082;2023-05-07T09:12:21;2.92;;;2.20;;
9334;SDS011;4706;41.844;26.082;2023-05-07T09:14:46;3.08;;;2.40;;
9334;SDS011;4706;41.844;26.082;2023-05-07T09:17:12;2.88;;;2.00;;
9334;SDS011;4706;41.844;26.082;2023-05-07T09:19:38;3.20;;;2.42;;
9334;SDS011;4706;41.844;26.082;2023-05-07T09:22:05;2.17;;;2.05;;
9334;SDS011;4706;41.844;26.082;2023-05-07T09:24:32;5.35;;;2.03;;
9334;SDS011;4706;41.844;26.082;2023-05-07T09:27:03;4.20;;;2.38;;
9334;SDS011;4706;41.844;26.082;2023-05-07T09:29:29;3.78;;;3.47;;
9334;SDS011;4706;41.844;26.082;2023-05-07T09:32:00;2.40;;;2.20;;
9334;SDS011;4706;41.844;26.082;2023-05-07T09:34:30;2.78;;;2.45;;
9334;SDS011;4706;41.844;26.082;2023-05-07T09:36:56;9.20;;;2.45;;
9334;SDS011;4706;41.844;26.082;2023-05-07T09:39:24;3.97;;;2.25;;
9334;SDS011;4706;41.844;26.082;2023-05-07T09:41:50;2.58;;;2.00;;
9334;SDS011;4706;41.844;26.082;2023-05-07T09:44:17;2.35;;;2.15;;
9334;SDS011;4706;41.844;26.082;2023-05-07T09:46:43;4.03;;;2.20;;
9334;SDS011;4706;41.844;26.082;2023-05-07T09:49:21;2.22;;;2.03;;
9334;SDS011;4706;41.844;26.082;2023-05-07T09:51:49;2.95;;;1.85;;
9334;SDS011;4706;41.844;26.082;2023-05-07T09:54:16;2.10;;;1.90;;
9334;SDS011;4706;41.844;26.082;2023-05-07T09:56:45;7.88;;;4.35;;
9334;SDS011;4706;41.844;26.082;2023-05-07T09:59:13;2.17;;;1.90;;
9334;SDS011;4706;41.844;26.082;2023-05-07T10:01:43;2.92;;;1.70;;
9334;SDS011;4706;41.844;26.082;2023-05-07T10:04:10;4.68;;;2.30;;
9334;SDS011;4706;41.844;26.082;2023-05-07T10:06:36;2.78;;;2.20;;
9334;SDS011;4706;41.844;26.082;2023-05-07T10:09:05;2.75;;;1.85;;
9334;SDS011;4706;41.844;26.082;2023-05-07T10:11:35;3.80;;;1.80;;
9334;SDS011;4706;41.844;26.082;2023-05-07T10:14:04;4.32;;;2.00;;
9334;SDS011;4706;41.844;26.082;2023-05-07T10:16:34;2.58;;;2.08;;
9334;SDS011;4706;41.844;26.082;2023-05-07T10:19:04;2.88;;;2.05;;
9334;SDS011;4706;41.844;26.082;2023-05-07T10:21:31;2.17;;;1.80;;
9334;SDS011;4706;41.844;26.082;2023-05-07T10:24:04;2.67;;;2.17;;
9334;SDS011;4706;41.844;26.082;2023-05-07T10:26:42;2.90;;;1.85;;
9334;SDS011;4706;41.844;26.082;2023-05-07T10:29:12;2.30;;;1.60;;
9334;SDS011;4706;41.844;26.082;2023-05-07T10:34:40;2.75;;;1.50;;
9334;SDS011;4706;41.844;26.082;2023-05-07T10:37:09;2.65;;;1.90;;
9334;SDS011;4706;41.844;26.082;2023-05-07T10:39:35;5.13;;;1.90;;
9334;SDS011;4706;41.844;26.082;2023-05-07T10:42:20;4.90;;;1.83;;
9334;SDS011;4706;41.844;26.082;2023-05-07T10:44:45;4.57;;;1.83;;
9334;SDS011;4706;41.844;26.082;2023-05-07T10:47:14;2.30;;;1.83;;
9334;SDS011;4706;41.844;26.082;2023-05-07T10:52:14;2.40;;;1.83;;
9334;SDS011;4706;41.844;26.082;2023-05-07T10:54:41;1.88;;;1.70;;
9334;SDS011;4706;41.844;26.082;2023-05-07T11:00:00;2.53;;;1.77;;
9334;SDS011;4706;41.844;26.082;2023-05-07T11:05:26;2.80;;;1.73;;
9334;SDS011;4706;41.844;26.082;2023-05-07T11:08:03;2.78;;;1.80;;
9334;SDS011;4706;41.844;26.082;2023-05-07T11:13:14;2.10;;;1.85;;
9334;SDS011;4706;41.844;26.082;2023-05-07T11:15:41;1.90;;;1.80;;
9334;SDS011;4706;41.844;26.082;2023-05-07T11:18:09;5.13;;;2.05;;
9334;SDS011;4706;41.844;26.082;2023-05-07T11:26:09;3.22;;;1.90;;
9334;SDS011;4706;41.844;26.082;2023-05-07T11:28:36;2.78;;;2.00;;
9334;SDS011;4706;41.844;26.082;2023-05-07T11:31:04;2.75;;;1.90;;
9334;SDS011;4706;41.844;26.082;2023-05-07T11:33:30;3.60;;;1.98;;
9334;SDS011;4706;41.844;26.082;2023-05-07T11:35:56;2.50;;;1.80;;
9334;SDS011;4706;41.844;26.082;2023-05-07T11:38:23;3.38;;;2.00;;
9334;SDS011;4706;41.844;26.082;2023-05-07T11:40:50;3.55;;;2.10;;
9334;SDS011;4706;41.844;26.082;2023-05-07T11:43:16;3.33;;;1.75;;
9334;SDS011;4706;41.844;26.082;2023-05-07T11:45:42;2.47;;;2.00;;
9334;SDS011;4706;41.844;26.082;2023-05-07T11:48:08;4.90;;;2.40;;
9334;SDS011;4706;41.844;26.082;2023-05-07T11:50:33;4.30;;;2.10;;
9334;SDS011;4706;41.844;26.082;2023-05-07T11:52:59;4.78;;;2.03;;
9334;SDS011;4706;41.844;26.082;2023-05-07T11:55:24;3.17;;;1.77;;
9334;SDS011;4706;41.844;26.082;2023-05-07T11:57:51;2.80;;;1.83;;
9334;SDS011;4706;41.844;26.082;2023-05-07T12:00:17;3.45;;;2.00;;
9334;SDS011;4706;41.844;26.082;2023-05-07T12:02:43;2.05;;;1.65;;
9334;SDS011;4706;41.844;26.082;2023-05-07T12:05:10;2.70;;;1.70;;
9334;SDS011;4706;41.844;26.082;2023-05-07T12:07:35;2.95;;;2.20;;
9334;SDS011;4706;41.844;26.082;2023-05-07T12:10:07;3.97;;;1.77;;
9334;SDS011;4706;41.844;26.082;2023-05-07T12:12:40;13.93;;;3.30;;
9334;SDS011;4706;41.844;26.082;2023-05-07T12:15:09;2.28;;;1.80;;
9334;SDS011;4706;41.844;26.082;2023-05-07T12:17:35;3.33;;;1.63;;
9334;SDS011;4706;41.844;26.082;2023-05-07T12:20:01;2.30;;;1.80;;
9334;SDS011;4706;41.844;26.082;2023-05-07T12:22:27;1.90;;;1.50;;
9334;SDS011;4706;41.844;26.082;2023-05-07T12:24:59;3.90;;;2.10;;
9334;SDS011;4706;41.844;26.082;2023-05-07T12:27:25;2.28;;;1.70;;
9334;SDS011;4706;41.844;26.082;2023-05-07T12:29:51;3.20;;;1.80;;
9334;SDS011;4706;41.844;26.082;2023-05-07T12:32:17;2.85;;;1.95;;
9334;SDS011;4706;41.844;26.082;2023-05-07T12:34:45;2.35;;;1.60;;
9334;SDS011;4706;41.844;26.082;2023-05-07T12:37:10;2.75;;;1.70;;
9334;SDS011;4706;41.844;26.082;2023-05-07T12:39:37;2.65;;;1.83;;
9334;SDS011;4706;41.844;26.082;2023-05-07T12:42:03;3.15;;;1.80;;
9334;SDS011;4706;41.844;26.082;2023-05-07T12:44:29;1.95;;;1.77;;
9334;SDS011;4706;41.844;26.082;2023-05-07T12:46:56;2.53;;;1.60;;
9334;SDS011;4706;41.844;26.082;2023-05-07T12:49:23;2.35;;;1.80;;
9334;SDS011;4706;41.844;26.082;2023-05-07T12:51:50;2.10;;;1.90;;
9334;SDS011;4706;41.844;26.082;2023-05-07T12:54:31;2.28;;;1.80;;
9334;SDS011;4706;41.844;26.082;2023-05-07T12:57:04;1.98;;;1.73;;
9334;SDS011;4706;41.844;26.082;2023-05-07T12:59:35;3.15;;;1.73;;
9334;SDS011;4706;41.844;26.082;2023-05-07T13:02:02;2.17;;;1.90;;
9334;SDS011;4706;41.844;26.082;2023-05-07T13:04:28;2.55;;;1.90;;
9334;SDS011;4706;41.844;26.082;2023-05-07T13:06:54;3.65;;;1.67;;
9334;SDS011;4706;41.844;26.082;2023-05-07T13:09:19;6.45;;;2.10;;
9334;SDS011;4706;41.844;26.082;2023-05-07T13:11:45;3.33;;;1.80;;
9334;SDS011;4706;41.844;26.082;2023-05-07T13:14:10;2.08;;;1.90;;
9334;SDS011;4706;41.844;26.082;2023-05-07T13:16:36;4.60;;;2.55;;
9334;SDS011;4706;41.844;26.082;2023-05-07T13:19:01;5.88;;;2.92;;
9334;SDS011;4706;41.844;26.082;2023-05-07T13:21:27;2.38;;;1.85;;
9334;SDS011;4706;41.844;26.082;2023-05-07T13:23:52;4.13;;;1.92;;
9334;SDS011;4706;41.844;26.082;2023-05-07T13:26:18;3.33;;;1.88;;
9334;SDS011;4706;41.844;26.082;2023-05-07T13:28:43;2.67;;;1.60;;
9334;SDS011;4706;41.844;26.082;2023-05-07T13:31:09;2.45;;;2.00;;
9334;SDS011;4706;41.844;26.082;2023-05-07T13:33:34;2.33;;;1.98;;
9334;SDS011;4706;41.844;26.082;2023-05-07T13:36:01;2.33;;;1.70;;
9334;SDS011;4706;41.844;26.082;2023-05-07T13:38:29;2.00;;;1.80;;
9334;SDS011;4706;41.844;26.082;2023-05-07T13:40:55;1.98;;;1.70;;
9334;SDS011;4706;41.844;26.082;2023-05-07T13:43:20;1.85;;;1.60;;
9334;SDS011;4706;41.844;26.082;2023-05-07T13:45:46;3.92;;;2.00;;
9334;SDS011;4706;41.844;26.082;2023-05-07T13:48:11;3.50;;;1.80;;
9334;SDS011;4706;41.844;26.082;2023-05-07T13:50:37;1.90;;;1.70;;
9334;SDS011;4706;41.844;26.082;2023-05-07T13:53:02;2.00;;;1.80;;
9334;SDS011;4706;41.844;26.082;2023-05-07T13:55:28;1.90;;;1.70;;
9334;SDS011;4706;41.844;26.082;2023-05-07T13:57:58;3.25;;;1.85;;
9334;SDS011;4706;41.844;26.082;2023-05-07T14:00:25;2.42;;;1.95;;
9334;SDS011;4706;41.844;26.082;2023-05-07T14:02:52;3.03;;;2.20;;
9334;SDS011;4706;41.844;26.082;2023-05-07T14:05:18;1.95;;;1.80;;
9334;SDS011;4706;41.844;26.082;2023-05-07T14:07:44;3.35;;;1.90;;
9334;SDS011;4706;41.844;26.082;2023-05-07T14:10:10;3.75;;;1.80;;
9334;SDS011;4706;41.844;26.082;2023-05-07T14:12:36;3.17;;;1.95;;
9334;SDS011;4706;41.844;26.082;2023-05-07T14:15:02;4.22;;;1.90;;
9334;SDS011;4706;41.844;26.082;2023-05-07T14:17:28;2.55;;;1.63;;
9334;SDS011;4706;41.844;26.082;2023-05-07T14:19:54;2.42;;;2.08;;
9334;SDS011;4706;41.844;26.082;2023-05-07T14:22:20;3.35;;;1.80;;
9334;SDS011;4706;41.844;26.082;2023-05-07T14:24:49;3.15;;;1.58;;
9334;SDS011;4706;41.844;26.082;2023-05-07T14:27:15;12.23;;;2.92;;
9334;SDS011;4706;41.844;26.082;2023-05-07T14:29:41;3.72;;;2.00;;
9334;SDS011;4706;41.844;26.082;2023-05-07T14:32:07;8.25;;;2.15;;
9334;SDS011;4706;41.844;26.082;2023-05-07T14:34:33;5.20;;;2.20;;
9334;SDS011;4706;41.844;26.082;2023-05-07T14:36:59;3.03;;;1.80;;
9334;SDS011;4706;41.844;26.082;2023-05-07T14:39:24;4.15;;;1.92;;
9334;SDS011;4706;41.844;26.082;2023-05-07T14:41:51;3.33;;;2.28;;
9334;SDS011;4706;41.844;26.082;2023-05-07T14:44:16;4.15;;;2.03;;
9334;SDS011;4706;41.844;26.082;2023-05-07T14:46:42;2.75;;;2.20;;
9334;SDS011;4706;41.844;26.082;2023-05-07T14:49:07;3.97;;;2.00;;
9334;SDS011;4706;41.844;26.082;2023-05-07T14:51:41;2.33;;;2.00;;
9334;SDS011;4706;41.844;26.082;2023-05-07T14:54:07;2.78;;;2.00;;
9334;SDS011;4706;41.844;26.082;2023-05-07T14:56:33;4.05;;;1.95;;
9334;SDS011;4706;41.844;26.082;2023-05-07T14:59:00;2.63;;;2.10;;
9334;SDS011;4706;41.844;26.082;2023-05-07T15:01:25;2.40;;;2.20;;
9334;SDS011;4706;41.844;26.082;2023-05-07T15:03:51;1.95;;;1.75;;
9334;SDS011;4706;41.844;26.082;2023-05-07T15:06:16;3.47;;;2.08;;
9334;SDS011;4706;41.844;26.082;2023-05-07T15:08:42;2.47;;;2.00;;
9334;SDS011;4706;41.844;26.082;2023-05-07T15:11:07;4.20;;;2.15;;
9334;SDS011;4706;41.844;26.082;2023-05-07T15:13:33;2.53;;;1.90;;
9334;SDS011;4706;41.844;26.082;2023-05-07T15:15:58;5.90;;;2.35;;